createdAt,value
2017-08-19T00:00:22.096Z,99.99
2017-08-19T00:01:22.172Z,99.99
2017-08-19T00:02:22.151Z,99.99
2017-08-19T00:03:22.180Z,99.99
2017-08-19T00:04:22.194Z,99.99
2017-08-19T00:05:22.134Z,99.99
2017-08-19T00:06:22.115Z,99.99
2017-08-19T00:07:22.100Z,99.99
2017-08-19T00:08:22.207Z,99.99
2017-08-19T00:09:22.277Z,99.99
2017-08-19T00:10:22.166Z,99.99
2017-08-19T00:11:22.107Z,99.99
2017-08-19T00:12:22.133Z,99.99
2017-08-19T00:13:22.111Z,99.99
2017-08-19T00:14:22.250Z,99.99
2017-08-19T00:15:22.081Z,99.99
2017-08-19T00:16:22.135Z,99.99
2017-08-19T00:17:22.134Z,99.99
2017-08-19T00:18:22.134Z,99.99
2017-08-19T00:19:22.185Z,99.99
2017-08-19T00:20:22.079Z,99.99
2017-08-19T00:21:22.141Z,99.99
2017-08-19T00:22:22.147Z,99.99
2017-08-19T00:23:22.127Z,99.99
2017-08-19T00:24:22.134Z,99.99
2017-08-19T00:25:22.214Z,99.99
2017-08-19T00:26:22.163Z,99.99
2017-08-19T00:27:22.174Z,99.99
2017-08-19T00:28:22.118Z,99.99
2017-08-19T00:29:22.119Z,99.99
2017-08-19T00:30:22.148Z,99.99
2017-08-19T00:31:22.227Z,99.99
2017-08-19T00:32:22.147Z,99.99
2017-08-19T00:33:22.122Z,99.99
2017-08-19T00:34:22.133Z,99.99
2017-08-19T00:35:22.116Z,99.99
2017-08-19T00:36:22.108Z,99.99
2017-08-19T00:37:22.262Z,99.99
2017-08-19T00:38:22.101Z,99.99
2017-08-19T00:39:22.115Z,99.99
2017-08-19T00:40:22.099Z,99.99
2017-08-19T00:41:22.140Z,99.99
2017-08-19T00:42:22.212Z,99.99
2017-08-19T00:43:22.199Z,99.99
2017-08-19T00:44:22.159Z,99.99
2017-08-19T00:45:22.342Z,99.99
2017-08-19T00:46:22.135Z,99.99
2017-08-19T00:47:22.173Z,99.99
2017-08-19T00:48:22.208Z,99.99
2017-08-19T00:49:22.139Z,99.99
2017-08-19T00:50:22.194Z,99.99
2017-08-19T00:51:22.199Z,99.99
2017-08-19T00:52:22.130Z,99.99
2017-08-19T00:53:22.305Z,99.99
2017-08-19T00:54:22.199Z,99.99
2017-08-19T00:55:22.151Z,99.99
2017-08-19T00:56:22.183Z,99.99
2017-08-19T00:57:22.230Z,99.99
2017-08-19T00:58:22.242Z,99.99
2017-08-19T00:59:22.208Z,99.99
2017-08-19T01:00:22.142Z,99.99
2017-08-19T01:01:22.151Z,99.99
2017-08-19T01:02:22.120Z,99.99
2017-08-19T01:03:22.151Z,99.99
2017-08-19T01:04:22.150Z,99.99
2017-08-19T01:05:22.136Z,99.99
2017-08-19T01:06:22.118Z,99.99
2017-08-19T01:07:22.072Z,99.99
2017-08-19T01:08:22.141Z,99.99
2017-08-19T01:09:22.155Z,99.99
2017-08-19T01:10:22.083Z,99.99
2017-08-19T01:11:22.150Z,99.99
2017-08-19T01:12:22.158Z,99.99
2017-08-19T01:13:22.123Z,99.99
2017-08-19T01:14:22.189Z,99.99
2017-08-19T01:15:22.171Z,99.99
2017-08-19T01:16:22.124Z,99.99
2017-08-19T01:17:22.188Z,99.99
2017-08-19T01:18:22.149Z,99.99
2017-08-19T01:19:22.144Z,99.99
2017-08-19T01:20:22.217Z,99.99
2017-08-19T01:21:22.157Z,99.99
2017-08-19T01:22:22.176Z,99.99
2017-08-19T01:23:22.146Z,99.99
2017-08-19T01:24:22.145Z,99.99
2017-08-19T01:25:22.216Z,99.99
2017-08-19T01:26:22.153Z,99.99
2017-08-19T01:27:22.207Z,99.99
2017-08-19T01:28:22.216Z,99.99
2017-08-19T01:29:22.188Z,99.99
2017-08-19T01:30:22.225Z,99.99
2017-08-19T01:31:22.181Z,99.99
2017-08-19T01:32:22.205Z,99.99
2017-08-19T01:33:22.143Z,99.99
2017-08-19T01:34:22.174Z,99.99
2017-08-19T01:35:22.207Z,99.99
2017-08-19T01:36:22.147Z,99.99
2017-08-19T01:37:22.206Z,99.99
2017-08-19T01:38:22.189Z,99.99
2017-08-19T01:39:22.209Z,99.99
2017-08-19T01:40:22.174Z,99.99
2017-08-19T01:41:22.173Z,99.99
2017-08-19T01:42:22.153Z,99.99
2017-08-19T01:43:22.177Z,99.99
2017-08-19T01:44:22.184Z,99.99
2017-08-19T01:45:22.217Z,99.99
2017-08-19T01:46:22.152Z,99.99
2017-08-19T01:47:22.155Z,99.99
2017-08-19T01:48:22.153Z,99.99
2017-08-19T01:49:22.219Z,99.99
2017-08-19T01:50:22.219Z,99.99
2017-08-19T01:51:22.214Z,99.99
2017-08-19T01:52:22.192Z,99.99
2017-08-19T01:53:22.217Z,99.99
2017-08-19T01:54:22.237Z,99.99
2017-08-19T01:55:22.255Z,99.99
2017-08-19T01:56:22.168Z,99.99
2017-08-19T01:57:22.200Z,99.99
2017-08-19T01:58:22.199Z,99.99
2017-08-19T01:59:22.173Z,99.99
2017-08-19T02:00:22.201Z,99.99
2017-08-19T02:01:22.195Z,99.99
2017-08-19T02:02:22.235Z,99.99
2017-08-19T02:03:22.228Z,99.99
2017-08-19T02:04:22.196Z,99.99
2017-08-19T02:05:22.211Z,99.99
2017-08-19T02:06:22.196Z,99.99
2017-08-19T02:07:22.171Z,99.99
2017-08-19T02:08:22.175Z,99.99
2017-08-19T02:09:22.235Z,99.99
2017-08-19T02:10:22.248Z,99.99
2017-08-19T02:11:22.241Z,99.99
2017-08-19T02:12:22.183Z,99.99
2017-08-19T02:13:22.260Z,99.99
2017-08-19T02:14:22.304Z,99.99
2017-08-19T02:15:22.203Z,99.99
2017-08-19T02:16:22.234Z,99.99
2017-08-19T02:17:22.231Z,99.99
2017-08-19T02:18:22.211Z,99.99
2017-08-19T02:19:22.241Z,99.99
2017-08-19T02:20:22.274Z,99.99
2017-08-19T02:21:22.182Z,99.99
2017-08-19T02:22:22.158Z,99.99
2017-08-19T02:23:22.249Z,99.99
2017-08-19T02:24:22.205Z,99.99
2017-08-19T02:25:22.157Z,99.99
2017-08-19T02:26:22.252Z,99.99
2017-08-19T02:27:22.209Z,99.99
2017-08-19T02:28:22.253Z,99.99
2017-08-19T02:29:22.206Z,99.99
2017-08-19T02:30:22.137Z,99.99
2017-08-19T02:31:22.166Z,99.99
2017-08-19T02:32:22.227Z,99.99
2017-08-19T02:33:22.260Z,99.99
2017-08-19T02:34:22.188Z,99.99
2017-08-19T02:35:22.276Z,99.99
2017-08-19T02:36:22.261Z,99.99
2017-08-19T02:37:22.243Z,99.99
2017-08-19T02:38:22.213Z,99.99
2017-08-19T02:39:22.298Z,99.99
2017-08-19T02:40:22.278Z,99.99
2017-08-19T02:41:22.190Z,99.99
2017-08-19T02:42:22.268Z,99.99
2017-08-19T02:43:22.230Z,99.99
2017-08-19T02:44:22.296Z,99.99
2017-08-19T02:45:22.221Z,99.86
2017-08-19T02:46:22.226Z,99.56
2017-08-19T02:47:22.251Z,99.45
2017-08-19T02:48:22.235Z,99.13
2017-08-19T02:49:22.250Z,99.23
2017-08-19T02:50:22.204Z,99.59
2017-08-19T02:51:22.201Z,98.94
2017-08-19T02:52:22.184Z,98.88
2017-08-19T02:53:22.171Z,99.15
2017-08-19T02:54:22.269Z,99.59
2017-08-19T02:55:22.201Z,99.75
2017-08-19T02:56:22.226Z,99.83
2017-08-19T02:57:22.198Z,99.62
2017-08-19T02:58:22.179Z,99.99
2017-08-19T02:59:22.222Z,99.99
2017-08-19T03:00:22.250Z,99.99
2017-08-19T03:01:22.179Z,99.99
2017-08-19T03:02:22.230Z,99.99
2017-08-19T03:03:22.229Z,99.99
2017-08-19T03:04:22.155Z,99.99
2017-08-19T03:05:22.214Z,99.99
2017-08-19T03:06:22.205Z,99.99
2017-08-19T03:07:22.220Z,99.99
2017-08-19T03:08:22.187Z,99.99
2017-08-19T03:09:22.206Z,99.99
2017-08-19T03:10:22.230Z,99.99
2017-08-19T03:11:22.193Z,99.99
2017-08-19T03:12:22.229Z,99.99
2017-08-19T03:13:22.232Z,99.99
2017-08-19T03:14:22.236Z,99.99
2017-08-19T03:15:22.209Z,99.99
2017-08-19T03:16:22.206Z,99.99
2017-08-19T03:17:22.237Z,99.99
2017-08-19T03:18:22.238Z,99.99
2017-08-19T03:19:22.240Z,99.99
2017-08-19T03:20:22.212Z,99.99
2017-08-19T03:21:22.237Z,99.99
2017-08-19T03:22:22.283Z,99.99
2017-08-19T03:23:22.308Z,99.99
2017-08-19T03:24:22.241Z,99.99
2017-08-19T03:25:22.222Z,99.99
2017-08-19T03:26:22.272Z,99.99
2017-08-19T03:27:22.315Z,99.99
2017-08-19T03:28:22.248Z,99.99
2017-08-19T03:29:22.259Z,99.99
2017-08-19T03:30:22.260Z,99.99
2017-08-19T03:31:22.276Z,99.99
2017-08-19T03:32:22.280Z,99.99
2017-08-19T03:33:22.239Z,99.99
2017-08-19T03:34:22.242Z,99.99
2017-08-19T03:35:22.282Z,99.99
2017-08-19T03:36:22.228Z,99.99
2017-08-19T03:37:22.247Z,99.99
2017-08-19T03:38:22.221Z,99.99
2017-08-19T03:39:22.282Z,99.99
2017-08-19T03:40:22.282Z,99.99
2017-08-19T03:41:22.277Z,99.99
2017-08-19T03:42:22.333Z,99.99
2017-08-19T03:43:22.320Z,99.99
2017-08-19T03:44:22.296Z,99.99
2017-08-19T03:45:22.318Z,99.99
2017-08-19T03:46:22.260Z,99.99
2017-08-19T03:47:22.330Z,99.99
2017-08-19T03:48:22.260Z,99.99
2017-08-19T03:49:22.328Z,99.99
2017-08-19T03:50:22.302Z,99.99
2017-08-19T03:51:22.324Z,99.99
2017-08-19T03:52:22.337Z,99.99
2017-08-19T03:53:22.241Z,99.99
2017-08-19T03:54:22.235Z,99.99
2017-08-19T03:55:22.244Z,99.99
2017-08-19T03:56:22.325Z,99.99
2017-08-19T03:57:22.274Z,99.99
2017-08-19T03:58:22.272Z,99.99
2017-08-19T03:59:22.268Z,99.99
2017-08-19T04:00:22.330Z,99.99
2017-08-19T04:01:22.307Z,99.99
2017-08-19T04:02:22.239Z,99.99
2017-08-19T04:03:22.196Z,99.99
2017-08-19T04:04:22.256Z,99.99
2017-08-19T04:05:22.311Z,99.99
2017-08-19T04:06:22.217Z,99.99
2017-08-19T04:07:22.226Z,99.99
2017-08-19T04:08:22.267Z,99.99
2017-08-19T04:09:22.218Z,99.99
2017-08-19T04:10:22.264Z,99.99
2017-08-19T04:11:22.272Z,99.99
2017-08-19T04:12:22.199Z,99.99
2017-08-19T04:13:22.267Z,99.99
2017-08-19T04:14:22.267Z,99.99
2017-08-19T04:15:22.254Z,99.99
2017-08-19T04:16:22.222Z,99.99
2017-08-19T04:17:22.272Z,99.99
2017-08-19T04:18:22.247Z,99.99
2017-08-19T04:19:22.253Z,99.99
2017-08-19T04:20:22.248Z,99.99
2017-08-19T04:21:22.283Z,99.99
2017-08-19T04:22:22.251Z,99.99
2017-08-19T04:23:22.249Z,99.99
2017-08-19T04:24:22.305Z,99.99
2017-08-19T04:25:22.248Z,99.99
2017-08-19T04:26:22.309Z,99.99
2017-08-19T04:27:22.280Z,99.99
2017-08-19T04:28:22.279Z,99.99
2017-08-19T04:29:22.249Z,99.99
2017-08-19T04:30:22.281Z,99.99
2017-08-19T04:31:22.281Z,99.99
2017-08-19T04:32:22.315Z,99.99
2017-08-19T04:33:22.315Z,99.99
2017-08-19T04:34:22.286Z,99.99
2017-08-19T04:35:22.292Z,99.99
2017-08-19T04:36:22.327Z,99.99
2017-08-19T04:37:22.296Z,99.99
2017-08-19T04:38:22.286Z,99.99
2017-08-19T04:39:22.300Z,99.99
2017-08-19T04:40:22.269Z,99.99
2017-08-19T04:41:22.366Z,99.99
2017-08-19T04:42:22.266Z,99.99
2017-08-19T04:43:22.267Z,99.99
2017-08-19T04:44:22.338Z,99.99
2017-08-19T04:45:22.290Z,99.99
2017-08-19T04:46:22.330Z,99.99
2017-08-19T04:47:22.366Z,99.99
2017-08-19T04:48:22.301Z,99.99
2017-08-19T04:49:22.355Z,99.99
2017-08-19T04:50:22.302Z,99.99
2017-08-19T04:51:22.385Z,99.99
2017-08-19T04:52:22.326Z,99.99
2017-08-19T04:53:22.306Z,99.99
2017-08-19T04:54:22.276Z,99.99
2017-08-19T04:55:22.309Z,99.99
2017-08-19T04:56:22.274Z,99.99
2017-08-19T04:57:22.277Z,99.99
2017-08-19T04:58:22.273Z,99.99
2017-08-19T04:59:22.344Z,99.99
2017-08-19T05:00:22.330Z,99.99
2017-08-19T05:01:22.303Z,99.99
2017-08-19T05:02:22.349Z,99.99
2017-08-19T05:03:22.338Z,99.99
2017-08-19T05:04:22.256Z,99.99
2017-08-19T05:05:22.299Z,99.99
2017-08-19T05:06:22.337Z,99.99
2017-08-19T05:07:22.273Z,99.99
2017-08-19T05:08:22.306Z,99.99
2017-08-19T05:09:22.278Z,99.99
2017-08-19T05:10:22.294Z,99.99
2017-08-19T05:11:22.277Z,99.99
2017-08-19T05:12:22.302Z,99.99
2017-08-19T05:13:22.341Z,99.99
2017-08-19T05:14:22.307Z,99.99
2017-08-19T05:15:22.313Z,99.99
2017-08-19T05:16:22.343Z,99.99
2017-08-19T05:17:22.348Z,99.99
2017-08-19T05:18:22.321Z,99.99
2017-08-19T05:19:22.290Z,99.99
2017-08-19T05:20:22.345Z,99.99
2017-08-19T05:21:22.379Z,99.99
2017-08-19T05:22:22.320Z,99.99
2017-08-19T05:23:22.384Z,99.99
2017-08-19T05:24:22.316Z,99.99
2017-08-19T05:25:22.382Z,99.99
2017-08-19T05:26:22.382Z,99.99
2017-08-19T05:27:22.327Z,99.99
2017-08-19T05:28:22.318Z,99.99
2017-08-19T05:29:22.324Z,99.99
2017-08-19T05:30:22.359Z,99.99
2017-08-19T05:31:22.385Z,99.99
2017-08-19T05:32:22.313Z,99.99
2017-08-19T05:33:22.314Z,99.99
2017-08-19T05:34:22.295Z,99.99
2017-08-19T05:35:22.260Z,99.99
2017-08-19T05:36:22.321Z,99.99
2017-08-19T05:37:22.314Z,99.99
2017-08-19T05:38:22.307Z,99.99
2017-08-19T05:39:22.318Z,99.99
2017-08-19T05:40:22.318Z,99.99
2017-08-19T05:41:22.317Z,99.99
2017-08-19T05:42:22.316Z,99.99
2017-08-19T05:43:22.354Z,99.99
2017-08-19T05:44:22.396Z,99.99
2017-08-19T05:45:22.298Z,99.99
2017-08-19T05:46:25.308Z,99.99
2017-08-19T05:47:22.374Z,99.99
2017-08-19T05:48:22.329Z,99.99
2017-08-19T05:49:25.438Z,99.99
2017-08-19T05:50:22.383Z,99.99
2017-08-19T05:51:22.304Z,99.99
2017-08-19T05:52:22.306Z,99.99
2017-08-19T05:53:22.405Z,99.99
2017-08-19T05:54:23.433Z,99.99
2017-08-19T05:55:23.439Z,99.99
2017-08-19T05:56:22.359Z,99.99
2017-08-19T05:57:22.329Z,99.72
2017-08-19T05:58:22.314Z,99.40
2017-08-19T05:59:22.412Z,96.96
2017-08-19T06:00:22.402Z,96.02
2017-08-19T06:01:22.314Z,94.15
2017-08-19T06:02:23.367Z,93.56
2017-08-19T06:03:22.375Z,93.91
2017-08-19T06:05:22.391Z,93.54
2017-08-19T06:06:22.317Z,91.84
2017-08-19T06:07:22.376Z,92.73
2017-08-19T06:08:22.324Z,90.66
2017-08-19T06:09:22.413Z,91.79
2017-08-19T06:10:25.425Z,90.23
2017-08-19T06:11:22.328Z,87.88
2017-08-19T06:12:22.427Z,87.32
2017-08-19T06:13:23.445Z,84.87
2017-08-19T06:14:22.406Z,87.90
2017-08-19T06:15:22.395Z,89.19
2017-08-19T06:16:22.326Z,85.96
2017-08-19T06:17:23.360Z,86.36
2017-08-19T06:18:22.356Z,87.82
2017-08-19T06:19:22.364Z,87.40
2017-08-19T06:20:22.390Z,83.12
2017-08-19T06:21:22.380Z,82.75
2017-08-19T06:22:22.354Z,83.17
2017-08-19T06:23:22.428Z,84.52
2017-08-19T06:24:22.365Z,88.52
2017-08-19T06:25:22.394Z,85.48
2017-08-19T06:26:22.373Z,84.74
2017-08-19T06:27:22.422Z,84.60
2017-08-19T06:28:23.337Z,88.23
2017-08-19T06:29:23.336Z,83.17
2017-08-19T06:30:22.396Z,84.74
2017-08-19T06:31:22.370Z,81.50
2017-08-19T06:32:22.387Z,84.23
2017-08-19T06:33:22.342Z,83.33
2017-08-19T06:34:22.371Z,83.70
2017-08-19T06:35:22.405Z,82.88
2017-08-19T06:36:22.437Z,83.70
2017-08-19T06:37:22.377Z,83.22
2017-08-19T06:38:22.368Z,80.81
2017-08-19T06:39:22.384Z,82.21
2017-08-19T06:40:22.407Z,84.17
2017-08-19T06:41:22.342Z,84.95
2017-08-19T06:42:22.346Z,83.67
2017-08-19T06:43:22.442Z,81.52
2017-08-19T06:44:22.349Z,82.72
2017-08-19T06:45:22.381Z,80.23
2017-08-19T06:46:22.404Z,80.84
2017-08-19T06:47:22.439Z,81.68
2017-08-19T06:48:22.414Z,78.54
2017-08-19T06:49:22.356Z,79.49
2017-08-19T06:50:23.387Z,79.57
2017-08-19T06:51:22.352Z,80.02
2017-08-19T06:52:22.355Z,78.59
2017-08-19T06:53:22.253Z,80.21
2017-08-19T06:54:22.246Z,81.82
2017-08-19T06:55:22.293Z,81.48
2017-08-19T06:56:22.339Z,78.33
2017-08-19T06:57:22.299Z,79.83
2017-08-19T06:58:22.252Z,77.75
2017-08-19T06:59:22.256Z,79.55
2017-08-19T07:00:22.260Z,79.57
2017-08-19T07:01:22.263Z,79.94
2017-08-19T07:02:22.344Z,82.14
2017-08-19T07:03:22.423Z,79.73
2017-08-19T07:04:22.394Z,80.63
2017-08-19T07:05:22.398Z,81.82
2017-08-19T07:06:22.363Z,80.21
2017-08-19T07:07:22.392Z,81.05
2017-08-19T07:08:22.385Z,81.00
2017-08-19T07:09:22.382Z,82.03
2017-08-19T07:10:22.397Z,79.63
2017-08-19T07:11:22.371Z,80.65
2017-08-19T07:12:22.361Z,80.05
2017-08-19T07:13:22.361Z,79.49
2017-08-19T07:14:22.398Z,80.41
2017-08-19T07:15:22.422Z,81.87
2017-08-19T07:16:22.428Z,82.08
2017-08-19T07:17:22.392Z,78.23
2017-08-19T07:18:22.366Z,80.60
2017-08-19T07:19:22.424Z,80.44
2017-08-19T07:20:22.462Z,78.59
2017-08-19T07:21:22.409Z,78.41
2017-08-19T07:22:22.394Z,78.44
2017-08-19T07:23:22.390Z,75.34
2017-08-19T07:24:22.363Z,78.07
2017-08-19T07:25:22.353Z,78.20
2017-08-19T07:26:22.325Z,78.01
2017-08-19T07:27:22.366Z,77.12
2017-08-19T07:28:22.366Z,77.51
2017-08-19T07:29:22.350Z,74.68
2017-08-19T07:30:22.381Z,76.44
2017-08-19T07:31:22.377Z,75.73
2017-08-19T07:32:22.370Z,74.58
2017-08-19T07:33:22.424Z,75.78
2017-08-19T07:34:22.351Z,74.21
2017-08-19T07:35:22.394Z,77.28
2017-08-19T07:36:22.315Z,75.10
2017-08-19T07:37:22.353Z,74.84
2017-08-19T07:38:22.378Z,75.96
2017-08-19T07:39:22.395Z,76.60
2017-08-19T07:40:22.396Z,75.96
2017-08-19T07:41:22.395Z,72.77
2017-08-19T07:42:22.402Z,75.73
2017-08-19T07:43:22.475Z,74.81
2017-08-19T07:44:22.390Z,75.99
2017-08-19T07:45:22.406Z,74.40
2017-08-19T07:46:22.484Z,75.13
2017-08-19T07:47:22.423Z,73.11
2017-08-19T07:48:22.384Z,77.47
2017-08-19T07:49:22.450Z,73.79
2017-08-19T07:50:22.420Z,74.21
2017-08-19T07:51:22.390Z,71.47
2017-08-19T07:52:22.458Z,73.16
2017-08-19T07:53:22.368Z,73.74
2017-08-19T07:54:22.446Z,71.99
2017-08-19T07:55:22.373Z,70.58
2017-08-19T07:56:22.441Z,72.64
2017-08-19T07:57:22.410Z,71.94
2017-08-19T07:58:22.448Z,72.80
2017-08-19T07:59:22.450Z,71.70
2017-08-19T08:00:22.416Z,68.81
2017-08-19T08:01:22.451Z,70.68
2017-08-19T08:02:22.441Z,74.13
2017-08-19T08:03:22.398Z,74.73
2017-08-19T08:04:22.431Z,70.48
2017-08-19T08:05:22.397Z,70.84
2017-08-19T08:06:22.426Z,73.01
2017-08-19T08:07:22.491Z,73.06
2017-08-19T08:08:22.391Z,70.56
2017-08-19T08:09:22.401Z,69.20
2017-08-19T08:10:22.394Z,68.97
2017-08-19T08:11:22.393Z,69.70
2017-08-19T08:12:22.419Z,72.69
2017-08-19T08:13:22.432Z,66.35
2017-08-19T08:14:22.376Z,67.05
2017-08-19T08:15:22.284Z,69.72
2017-08-19T08:16:22.297Z,68.94
2017-08-19T08:17:22.297Z,71.23
2017-08-19T08:18:22.331Z,70.89
2017-08-19T08:19:22.339Z,69.02
2017-08-19T08:20:22.299Z,68.60
2017-08-19T08:21:22.341Z,67.13
2017-08-19T08:22:22.305Z,69.07
2017-08-19T08:23:22.345Z,68.08
2017-08-19T08:24:22.485Z,70.53
2017-08-19T08:25:22.432Z,70.58
2017-08-19T08:26:22.480Z,69.30
2017-08-19T08:27:22.481Z,68.11
2017-08-19T08:28:22.445Z,69.59
2017-08-19T08:29:22.453Z,66.66
2017-08-19T08:30:22.434Z,67.46
2017-08-19T08:31:22.493Z,69.85
2017-08-19T08:32:22.467Z,63.82
2017-08-19T08:33:22.480Z,68.87
2017-08-19T08:34:22.465Z,68.71
2017-08-19T08:35:22.434Z,64.75
2017-08-19T08:36:22.527Z,64.52
2017-08-19T08:37:22.444Z,65.37
2017-08-19T08:38:22.509Z,64.90
2017-08-19T08:39:22.422Z,65.68
2017-08-19T08:40:22.451Z,65.73
2017-08-19T08:41:22.437Z,68.79
2017-08-19T08:42:22.437Z,62.20
2017-08-19T08:43:22.474Z,64.00
2017-08-19T08:44:22.457Z,62.33
2017-08-19T08:45:22.445Z,64.15
2017-08-19T08:46:22.461Z,64.54
2017-08-19T08:47:22.417Z,62.94
2017-08-19T08:48:22.511Z,63.07
2017-08-19T08:49:22.482Z,61.97
2017-08-19T08:50:22.422Z,62.46
2017-08-19T08:51:22.485Z,65.03
2017-08-19T08:52:22.463Z,63.35
2017-08-19T08:53:22.447Z,63.07
2017-08-19T08:54:22.421Z,63.05
2017-08-19T08:55:22.429Z,63.18
2017-08-19T08:56:22.454Z,62.66
2017-08-19T08:57:22.421Z,62.53
2017-08-19T08:58:22.423Z,63.07
2017-08-19T08:59:22.376Z,62.30
2017-08-19T09:00:22.399Z,61.04
2017-08-19T09:01:22.451Z,61.56
2017-08-19T09:02:22.460Z,61.48
2017-08-19T09:03:22.414Z,62.22
2017-08-19T09:04:22.454Z,62.43
2017-08-19T09:05:22.444Z,61.38
2017-08-19T09:06:22.437Z,63.54
2017-08-19T09:07:22.445Z,62.99
2017-08-19T09:08:22.456Z,62.22
2017-08-19T09:09:22.417Z,61.86
2017-08-19T09:10:22.452Z,59.81
2017-08-19T09:11:22.459Z,62.04
2017-08-19T09:12:22.500Z,62.94
2017-08-19T09:13:22.409Z,60.35
2017-08-19T09:14:22.510Z,60.68
2017-08-19T09:15:22.438Z,59.94
2017-08-19T09:16:22.509Z,61.66
2017-08-19T09:17:22.467Z,60.25
2017-08-19T09:18:22.440Z,61.40
2017-08-19T09:19:22.504Z,63.23
2017-08-19T09:20:22.478Z,62.87
2017-08-19T09:21:22.538Z,64.88
2017-08-19T09:22:22.542Z,60.37
2017-08-19T09:23:22.497Z,63.49
2017-08-19T09:24:22.507Z,61.12
2017-08-19T09:25:22.473Z,65.03
2017-08-19T09:26:22.506Z,58.79
2017-08-19T09:27:22.511Z,61.35
2017-08-19T09:28:22.519Z,56.87
2017-08-19T09:29:22.544Z,59.30
2017-08-19T09:30:22.509Z,61.63
2017-08-19T09:31:22.476Z,61.50
2017-08-19T09:32:22.476Z,61.48
2017-08-19T09:33:22.512Z,63.35
2017-08-19T09:34:22.454Z,62.74
2017-08-19T09:35:22.401Z,60.91
2017-08-19T09:36:22.471Z,63.35
2017-08-19T09:37:22.420Z,61.66
2017-08-19T09:38:22.472Z,63.41
2017-08-19T09:39:22.483Z,64.49
2017-08-19T09:40:22.472Z,59.50
2017-08-19T09:41:22.474Z,60.12
2017-08-19T09:43:22.461Z,61.04
2017-08-19T09:44:22.459Z,60.35
2017-08-19T09:45:22.545Z,60.73
2017-08-19T09:46:22.487Z,61.48
2017-08-19T09:47:22.454Z,59.65
2017-08-19T09:48:22.509Z,60.33
2017-08-19T09:49:22.458Z,61.69
2017-08-19T09:50:22.483Z,61.50
2017-08-19T09:51:22.456Z,61.69
2017-08-19T09:52:22.533Z,61.38
2017-08-19T09:53:22.484Z,60.55
2017-08-19T09:54:22.529Z,61.48
2017-08-19T09:55:22.518Z,61.63
2017-08-19T09:56:22.548Z,59.81
2017-08-19T09:57:22.525Z,61.56
2017-08-19T09:58:22.483Z,57.74
2017-08-19T09:59:22.500Z,57.76
2017-08-19T10:00:22.487Z,55.57
2017-08-19T10:01:22.470Z,57.54
2017-08-19T10:02:22.504Z,57.89
2017-08-19T10:03:22.499Z,59.63
2017-08-19T10:04:22.470Z,56.82
2017-08-19T10:05:22.524Z,60.27
2017-08-19T10:06:22.507Z,61.99
2017-08-19T10:07:22.506Z,57.61
2017-08-19T10:08:22.521Z,57.43
2017-08-19T10:09:22.565Z,58.89
2017-08-19T10:10:22.522Z,60.45
2017-08-19T10:11:22.467Z,58.07
2017-08-19T10:12:22.533Z,58.84
2017-08-19T10:13:22.544Z,61.30
2017-08-19T10:14:22.459Z,58.61
2017-08-19T10:15:22.465Z,57.92
2017-08-19T10:16:22.529Z,60.81
2017-08-19T10:17:22.468Z,59.56
2017-08-19T10:18:22.494Z,61.06
2017-08-19T10:19:22.529Z,62.10
2017-08-19T10:20:22.534Z,58.46
2017-08-19T10:21:22.529Z,61.04
2017-08-19T10:22:22.510Z,60.81
2017-08-19T10:23:22.537Z,61.14
2017-08-19T10:24:22.476Z,59.45
2017-08-19T10:25:22.511Z,60.58
2017-08-19T10:26:22.540Z,60.48
2017-08-19T10:27:22.533Z,60.81
2017-08-19T10:28:22.570Z,56.36
2017-08-19T10:29:22.505Z,59.30
2017-08-19T10:30:22.507Z,53.82
2017-08-19T10:31:22.576Z,56.08
2017-08-19T10:32:22.479Z,55.80
2017-08-19T10:33:22.516Z,55.88
2017-08-19T10:34:22.488Z,64.98
2017-08-19T10:35:22.507Z,59.07
2017-08-19T10:36:22.489Z,58.07
2017-08-19T10:37:22.525Z,56.87
2017-08-19T10:38:22.491Z,57.33
2017-08-19T10:39:22.513Z,56.82
2017-08-19T10:40:22.515Z,55.67
2017-08-19T10:41:22.581Z,60.43
2017-08-19T10:42:22.581Z,56.26
2017-08-19T10:43:22.561Z,56.80
2017-08-19T10:44:22.499Z,59.99
2017-08-19T10:45:22.508Z,59.99
2017-08-19T10:46:22.482Z,60.14
2017-08-19T10:47:22.511Z,60.12
2017-08-19T10:48:22.513Z,60.43
2017-08-19T10:49:22.510Z,59.94
2017-08-19T10:50:22.549Z,62.25
2017-08-19T10:51:22.513Z,60.68
2017-08-19T10:52:22.549Z,61.66
2017-08-19T10:53:22.514Z,62.58
2017-08-19T10:54:22.549Z,62.46
2017-08-19T10:55:22.552Z,61.27
2017-08-19T10:56:22.556Z,61.84
2017-08-19T10:57:22.535Z,63.35
2017-08-19T10:58:22.586Z,62.12
2017-08-19T10:59:22.495Z,61.78
2017-08-19T11:00:22.526Z,63.26
2017-08-19T11:01:22.503Z,62.40
2017-08-19T11:02:22.528Z,60.66
2017-08-19T11:03:22.493Z,59.04
2017-08-19T11:04:22.505Z,60.09
2017-08-19T11:05:22.521Z,58.56
2017-08-19T11:06:22.522Z,57.23
2017-08-19T11:07:22.525Z,60.97
2017-08-19T11:08:22.526Z,60.22
2017-08-19T11:09:22.492Z,59.00
2017-08-19T11:10:22.526Z,55.96
2017-08-19T11:11:22.561Z,55.19
2017-08-19T11:12:22.564Z,57.23
2017-08-19T11:13:22.562Z,57.15
2017-08-19T11:14:22.563Z,57.79
2017-08-19T11:15:22.530Z,56.95
2017-08-19T11:16:22.569Z,57.95
2017-08-19T11:17:22.569Z,58.17
2017-08-19T11:18:22.547Z,56.18
2017-08-19T11:19:22.542Z,58.35
2017-08-19T11:20:22.544Z,58.48
2017-08-19T11:21:22.584Z,58.02
2017-08-19T11:22:22.513Z,59.02
2017-08-19T11:23:22.603Z,59.00
2017-08-19T11:24:22.585Z,56.90
2017-08-19T11:25:22.570Z,58.35
2017-08-19T11:26:22.545Z,58.38
2017-08-19T11:27:22.587Z,58.40
2017-08-19T11:28:22.610Z,58.46
2017-08-19T11:29:22.604Z,57.28
2017-08-19T11:30:22.551Z,56.39
2017-08-19T11:31:22.546Z,58.38
2017-08-19T11:32:22.521Z,59.84
2017-08-19T11:33:22.607Z,57.56
2017-08-19T11:34:22.613Z,59.00
2017-08-19T11:35:22.575Z,58.89
2017-08-19T11:36:22.548Z,58.92
2017-08-19T11:37:22.524Z,60.17
2017-08-19T11:38:22.542Z,57.61
2017-08-19T11:39:22.517Z,59.00
2017-08-19T11:40:22.512Z,59.40
2017-08-19T11:41:22.544Z,59.32
2017-08-19T11:42:22.538Z,61.30
2017-08-19T11:43:22.549Z,58.48
2017-08-19T11:44:22.522Z,59.94
2017-08-19T11:45:22.579Z,59.45
2017-08-19T11:46:22.517Z,60.63
2017-08-19T11:47:22.552Z,60.99
2017-08-19T11:48:22.582Z,59.94
2017-08-19T11:49:22.553Z,64.13
2017-08-19T11:50:22.591Z,60.55
2017-08-19T11:51:22.580Z,60.86
2017-08-19T11:52:22.585Z,60.43
2017-08-19T11:53:22.547Z,60.94
2017-08-19T11:54:22.551Z,62.99
2017-08-19T11:55:22.620Z,62.02
2017-08-19T11:56:22.603Z,61.50
2017-08-19T11:57:22.584Z,62.43
2017-08-19T11:58:22.624Z,59.84
2017-08-19T11:59:22.566Z,60.71
2017-08-19T12:00:22.599Z,60.30
2017-08-19T12:01:22.574Z,59.97
2017-08-19T12:02:22.626Z,60.89
2017-08-19T12:03:22.627Z,62.25
2017-08-19T12:04:22.603Z,61.06
2017-08-19T12:05:22.577Z,60.09
2017-08-19T12:06:22.557Z,60.22
2017-08-19T12:07:22.534Z,61.46
2017-08-19T12:08:22.559Z,58.89
2017-08-19T12:09:22.574Z,61.25
2017-08-19T12:10:22.578Z,59.50
2017-08-19T12:11:22.536Z,59.58
2017-08-19T12:12:22.563Z,59.68
2017-08-19T12:13:22.584Z,64.05
2017-08-19T12:14:22.595Z,60.91
2017-08-19T12:15:22.539Z,60.37
2017-08-19T12:16:22.559Z,60.43
2017-08-19T12:17:22.546Z,59.63
2017-08-19T12:18:22.633Z,61.02
2017-08-19T12:19:22.587Z,61.33
2017-08-19T12:20:22.585Z,66.17
2017-08-19T12:21:22.833Z,62.04
2017-08-19T12:22:22.568Z,61.48
2017-08-19T12:23:22.620Z,62.14
2017-08-19T12:24:22.603Z,61.61
2017-08-19T12:25:22.543Z,61.09
2017-08-19T12:26:22.520Z,60.35
2017-08-19T12:27:22.570Z,59.86
2017-08-19T12:28:22.614Z,60.14
2017-08-19T12:29:22.548Z,58.53
2017-08-19T12:30:22.548Z,60.22
2017-08-19T12:31:22.546Z,59.43
2017-08-19T12:32:22.574Z,61.43
2017-08-19T12:33:22.553Z,57.92
2017-08-19T12:34:22.576Z,60.45
2017-08-19T12:35:22.580Z,59.43
2017-08-19T12:36:22.523Z,60.91
2017-08-19T12:37:22.532Z,58.71
2017-08-19T12:38:22.561Z,59.56
2017-08-19T12:39:22.582Z,60.94
2017-08-19T12:40:22.528Z,62.40
2017-08-19T12:41:22.618Z,60.12
2017-08-19T12:42:22.566Z,61.20
2017-08-19T12:43:22.571Z,61.61
2017-08-19T12:44:22.575Z,59.37
2017-08-19T12:45:22.558Z,61.89
2017-08-19T12:46:22.587Z,60.12
2017-08-19T12:47:22.593Z,59.78
2017-08-19T12:48:22.566Z,59.20
2017-08-19T12:49:22.563Z,58.79
2017-08-19T12:50:22.591Z,58.04
2017-08-19T12:51:22.569Z,57.23
2017-08-19T12:52:22.600Z,58.43
2017-08-19T12:53:22.601Z,59.20
2017-08-19T12:54:22.621Z,57.33